Time;durP1;ratioP1;P1;durP2;ratioP2;P2;SDS_P1;SDS_P2;PMS_P1;PMS_P2;Temp;Humidity;BMP_temperature;BMP_pressure;BME280_temperature;BME280_humidity;BME280_pressure;Samples;Min_cycle;Max_cycle;Signal;HPM_P1;HPM_P2
2024/01/17 00:02:04;;;;;;;6.50;3.67;;;-3.50;99.90;;;;;;4859051;29;20033;-68
2024/01/17 00:04:30;;;;;;;5.18;3.72;;;-3.50;99.90;;;;;;4859863;29;20041;-68
2024/01/17 00:06:55;;;;;;;11.93;4.80;;;-3.50;99.90;;;;;;4859193;29;20120;-68
2024/01/17 00:09:21;;;;;;;7.07;4.82;;;-3.50;99.90;;;;;;4873256;29;20038;-68
2024/01/17 00:11:50;;;;;;;3.85;2.88;;;-3.60;99.90;;;;;;4873313;29;20427;-69
2024/01/17 00:14:15;;;;;;;9.50;3.80;;;-3.60;99.90;;;;;;4857109;29;20128;-69
2024/01/17 00:16:41;;;;;;;8.38;3.15;;;-3.70;99.90;;;;;;4871363;29;20120;-69
2024/01/17 00:19:07;;;;;;;6.45;3.75;;;-3.70;99.90;;;;;;4859674;29;20037;-69
2024/01/17 00:21:33;;;;;;;4.28;2.85;;;-3.70;99.90;;;;;;4872263;29;20053;-69
2024/01/17 00:23:58;;;;;;;10.23;3.10;;;-3.70;99.90;;;;;;4857977;29;20471;-69
2024/01/17 00:26:24;;;;;;;4.90;3.10;;;-3.70;99.90;;;;;;4857468;29;20034;-69
2024/01/17 00:28:50;;;;;;;3.88;3.25;;;-3.70;99.90;;;;;;4859088;29;20093;-69
2024/01/17 00:31:16;;;;;;;6.55;3.67;;;-3.70;99.90;;;;;;4858184;29;20033;-69
2024/01/17 00:33:41;;;;;;;8.63;4.15;;;-3.90;99.90;;;;;;4858801;29;20039;-67
2024/01/17 00:36:08;;;;;;;8.23;3.35;;;-3.90;99.90;;;;;;4858685;29;20034;-68
2024/01/17 00:38:34;;;;;;;9.57;4.40;;;-3.90;99.90;;;;;;4872867;29;20087;-67
2024/01/17 00:41:00;;;;;;;6.03;4.35;;;-3.90;99.90;;;;;;4854385;29;20037;-67
2024/01/17 00:43:26;;;;;;;8.48;4.00;;;-4.00;99.90;;;;;;4868829;29;20034;-68
2024/01/17 00:45:52;;;;;;;9.50;3.40;;;-4.00;99.90;;;;;;4872805;29;20034;-67
2024/01/17 00:48:18;;;;;;;14.48;4.30;;;-3.90;99.90;;;;;;4873530;29;20029;-67
2024/01/17 00:50:44;;;;;;;8.43;4.57;;;-3.80;99.90;;;;;;4872908;29;20036;-67
2024/01/17 00:53:10;;;;;;;10.25;3.38;;;-3.80;99.90;;;;;;4872882;29;20034;-67
2024/01/17 00:55:36;;;;;;;5.90;2.65;;;-3.70;99.90;;;;;;4857331;29;20459;-67
2024/01/17 00:58:04;;;;;;;9.15;4.00;;;-3.80;99.90;;;;;;4873420;29;20028;-67
2024/01/17 01:00:30;;;;;;;8.30;4.68;;;-3.70;99.90;;;;;;4872800;29;20077;-67
2024/01/17 01:02:55;;;;;;;13.93;5.80;;;-3.70;99.90;;;;;;4872817;29;20064;-68
2024/01/17 01:05:21;;;;;;;9.48;4.53;;;-3.80;99.90;;;;;;4873078;29;20077;-68
2024/01/17 01:07:51;;;;;;;7.95;4.65;;;-3.70;99.90;;;;;;4849900;29;20034;-67
2024/01/17 01:10:17;;;;;;;10.02;3.28;;;-3.70;99.90;;;;;;4858021;29;20033;-67
2024/01/17 01:12:42;;;;;;;8.90;3.40;;;-3.60;99.90;;;;;;4857016;29;20069;-67
2024/01/17 01:15:09;;;;;;;12.07;4.43;;;-3.50;99.90;;;;;;4860636;29;20037;-67
2024/01/17 01:17:34;;;;;;;8.45;4.97;;;-3.40;99.90;;;;;;4861536;29;20041;-67
2024/01/17 01:20:00;;;;;;;12.45;5.32;;;-3.40;99.90;;;;;;4860968;29;20034;-66
2024/01/17 01:22:26;;;;;;;8.52;4.25;;;-3.30;99.90;;;;;;4861112;29;20048;-67
2024/01/17 01:24:52;;;;;;;8.65;3.95;;;-3.30;99.90;;;;;;4858587;29;20044;-67
2024/01/17 01:27:17;;;;;;;7.65;3.63;;;-3.30;99.90;;;;;;4857718;29;20501;-67
2024/01/17 01:29:43;;;;;;;6.97;4.03;;;-3.30;99.90;;;;;;4855445;29;20033;-67
2024/01/17 01:32:09;;;;;;;13.45;3.60;;;-3.20;99.90;;;;;;4858459;29;20062;-67
2024/01/17 01:34:35;;;;;;;7.60;4.82;;;-3.20;99.90;;;;;;4855367;29;20054;-67
2024/01/17 01:37:01;;;;;;;9.30;4.38;;;-3.20;99.90;;;;;;4857577;29;20486;-67
2024/01/17 01:39:27;;;;;;;21.50;5.70;;;-3.20;99.90;;;;;;4855518;29;20044;-67
2024/01/17 01:41:53;;;;;;;12.35;5.40;;;-3.10;99.90;;;;;;4843224;29;20509;-67
2024/01/17 01:44:19;;;;;;;14.57;4.45;;;-3.10;99.90;;;;;;4874383;29;20034;-68
2024/01/17 01:46:49;;;;;;;16.67;5.65;;;-3.10;99.90;;;;;;4855168;29;20042;-67
2024/01/17 01:49:16;;;;;;;8.88;4.35;;;-3.20;99.90;;;;;;4864699;29;22158;-68
2024/01/17 01:51:44;;;;;;;11.55;4.93;;;-3.10;99.90;;;;;;4848262;29;20040;-68
2024/01/17 01:54:13;;;;;;;9.65;4.28;;;-3.20;99.90;;;;;;4865955;29;20041;-68
2024/01/17 01:56:41;;;;;;;9.15;4.15;;;-3.10;99.90;;;;;;4839808;29;20041;-68
2024/01/17 01:59:08;;;;;;;9.48;4.93;;;-3.00;99.90;;;;;;4872614;29;20079;-68
2024/01/17 02:01:36;;;;;;;7.90;4.70;;;-3.10;99.90;;;;;;4855991;29;20451;-68
2024/01/17 02:04:02;;;;;;;13.60;4.55;;;-3.10;99.90;;;;;;4850408;29;20094;-68
2024/01/17 02:06:35;;;;;;;6.85;3.85;;;-3.10;99.90;;;;;;4845002;29;20048;-68
2024/01/17 02:09:02;;;;;;;4.53;2.90;;;-3.10;99.90;;;;;;4866775;29;20124;-68
2024/01/17 02:11:31;;;;;;;9.18;3.63;;;-3.10;99.90;;;;;;4865195;29;20026;-68
2024/01/17 02:14:00;;;;;;;6.53;4.38;;;-3.20;99.90;;;;;;4852782;29;20037;-68
2024/01/17 02:16:26;;;;;;;10.30;4.13;;;-3.30;99.90;;;;;;4852675;29;20037;-68
2024/01/17 02:18:53;;;;;;;8.75;5.18;;;-3.30;99.90;;;;;;4847801;29;20042;-68
2024/01/17 02:21:19;;;;;;;4.75;3.58;;;-3.20;99.90;;;;;;4854320;29;20117;-68
2024/01/17 02:23:50;;;;;;;10.65;5.53;;;-3.10;99.90;;;;;;4866776;29;20120;-68
2024/01/17 02:26:16;;;;;;;6.53;4.50;;;-3.10;99.90;;;;;;4842330;29;20033;-68
2024/01/17 02:28:42;;;;;;;15.82;4.68;;;-3.10;99.90;;;;;;4848538;29;20056;-68
2024/01/17 02:31:08;;;;;;;5.82;3.72;;;-3.20;99.90;;;;;;4868375;29;20030;-68
2024/01/17 02:33:35;;;;;;;11.88;4.43;;;-3.20;99.90;;;;;;4868309;29;20056;-68
2024/01/17 02:36:00;;;;;;;8.68;4.00;;;-3.20;99.90;;;;;;4852656;29;20052;-67
2024/01/17 02:38:26;;;;;;;8.38;3.97;;;-3.20;99.90;;;;;;4854331;29;20037;-68
2024/01/17 02:40:52;;;;;;;9.50;5.03;;;-3.20;99.90;;;;;;4849602;29;20041;-68
2024/01/17 02:43:18;;;;;;;7.10;4.38;;;-3.10;99.90;;;;;;4874154;29;20053;-68
2024/01/17 02:45:44;;;;;;;6.63;4.43;;;-3.10;99.90;;;;;;4859010;29;20038;-68
2024/01/17 02:48:09;;;;;;;6.03;3.25;;;-3.20;99.90;;;;;;4872020;29;20032;-68
2024/01/17 02:50:35;;;;;;;6.13;4.25;;;-3.10;99.90;;;;;;4853425;29;20501;-68
2024/01/17 02:53:01;;;;;;;4.25;3.28;;;-3.10;99.90;;;;;;4854488;29;20166;-68
2024/01/17 02:55:27;;;;;;;7.10;3.95;;;-3.00;99.90;;;;;;4858018;29;20134;-68
2024/01/17 02:57:53;;;;;;;14.40;5.05;;;-3.00;99.90;;;;;;4857552;29;20483;-68
2024/01/17 03:00:19;;;;;;;11.52;4.95;;;-2.90;99.90;;;;;;4843777;29;20052;-68
2024/01/17 03:02:45;;;;;;;9.38;4.05;;;-2.90;99.90;;;;;;4866513;29;20036;-68
2024/01/17 03:05:11;;;;;;;6.20;4.40;;;-2.90;99.90;;;;;;4866240;29;20064;-68
2024/01/17 03:07:37;;;;;;;9.00;5.63;;;-2.90;99.90;;;;;;4856236;29;20498;-67
2024/01/17 03:10:03;;;;;;;6.53;4.05;;;-2.90;99.90;;;;;;4853201;29;20041;-67
2024/01/17 03:12:29;;;;;;;4.05;3.22;;;-3.10;99.90;;;;;;4843728;29;20037;-69
2024/01/17 03:14:55;;;;;;;10.52;5.07;;;-3.20;99.90;;;;;;4858193;29;20125;-68
2024/01/17 03:17:21;;;;;;;9.95;3.22;;;-3.30;99.90;;;;;;4874611;29;20057;-68
2024/01/17 03:19:49;;;;;;;5.97;3.35;;;-3.40;99.90;;;;;;4851818;29;20037;-67
2024/01/17 03:22:16;;;;;;;7.38;3.75;;;-3.30;99.90;;;;;;4858886;29;20037;-68
2024/01/17 03:24:45;;;;;;;6.43;3.90;;;-3.30;99.90;;;;;;4852385;29;20093;-68
2024/01/17 03:27:13;;;;;;;10.90;4.45;;;-3.30;99.90;;;;;;4859134;29;20026;-67
2024/01/17 03:29:39;;;;;;;6.00;4.00;;;-3.40;99.90;;;;;;4852526;29;20383;-68
2024/01/17 03:32:05;;;;;;;12.32;4.60;;;-3.40;99.90;;;;;;4858710;29;20034;-68
2024/01/17 03:34:30;;;;;;;9.65;4.53;;;-3.30;99.90;;;;;;4859751;29;20120;-68
2024/01/17 03:36:56;;;;;;;9.70;4.68;;;-3.40;99.90;;;;;;4858657;29;20064;-67
2024/01/17 03:39:22;;;;;;;3.55;2.42;;;-3.50;99.90;;;;;;4836930;29;20491;-67
2024/01/17 03:41:48;;;;;;;6.93;3.58;;;-3.50;99.90;;;;;;4874002;29;20038;-68
2024/01/17 03:44:13;;;;;;;5.32;3.67;;;-3.50;99.90;;;;;;4851509;29;20078;-68
2024/01/17 03:46:39;;;;;;;4.00;1.92;;;-3.50;99.90;;;;;;4858720;29;20068;-69
2024/01/17 03:49:05;;;;;;;11.20;4.75;;;-3.40;99.90;;;;;;4851798;29;20058;-67
2024/01/17 03:51:31;;;;;;;5.07;3.35;;;-3.40;99.90;;;;;;4858563;29;20108;-67
2024/01/17 03:53:56;;;;;;;14.48;4.88;;;-3.30;99.90;;;;;;4858859;29;20469;-67
2024/01/17 03:56:23;;;;;;;7.93;5.10;;;-3.20;99.90;;;;;;4859713;29;20621;-68
2024/01/17 03:58:49;;;;;;;15.23;6.25;;;-3.20;99.90;;;;;;4856618;29;20060;-68
2024/01/17 04:01:15;;;;;;;4.35;3.55;;;-3.20;99.90;;;;;;4858297;29;20073;-68
2024/01/17 04:03:41;;;;;;;14.00;4.35;;;-3.10;99.90;;;;;;4857294;29;20495;-68
2024/01/17 04:06:07;;;;;;;10.48;3.35;;;-3.00;99.90;;;;;;4873734;29;20026;-68
2024/01/17 04:08:33;;;;;;;6.18;4.40;;;-3.00;99.90;;;;;;4851915;29;20050;-68
2024/01/17 04:10:59;;;;;;;10.02;4.75;;;-3.00;99.90;;;;;;4859452;29;20567;-68
2024/01/17 04:13:25;;;;;;;7.07;5.03;;;-2.90;99.90;;;;;;4852501;29;20068;-68
2024/01/17 04:15:51;;;;;;;8.93;5.68;;;-2.90;99.90;;;;;;4872433;29;20038;-68
2024/01/17 04:18:17;;;;;;;8.95;4.20;;;-2.80;99.90;;;;;;4853768;29;20041;-68
2024/01/17 04:20:43;;;;;;;8.27;4.18;;;-2.90;99.90;;;;;;4871134;29;20112;-68
2024/01/17 04:23:09;;;;;;;7.80;5.97;;;-2.90;99.90;;;;;;4872898;29;20116;-68
2024/01/17 04:25:36;;;;;;;9.38;4.78;;;-2.90;99.90;;;;;;4859250;29;20561;-68
2024/01/17 04:28:08;;;;;;;9.68;4.28;;;-2.90;99.90;;;;;;4850289;29;20041;-68
2024/01/17 04:30:34;;;;;;;12.50;5.43;;;-2.90;99.90;;;;;;4859224;29;20041;-68
2024/01/17 04:33:03;;;;;;;7.85;4.88;;;-2.80;99.90;;;;;;4850095;29;20048;-68
2024/01/17 04:35:31;;;;;;;10.70;4.30;;;-2.70;99.90;;;;;;4857984;29;20034;-68
2024/01/17 04:37:57;;;;;;;5.10;3.90;;;-2.70;99.90;;;;;;4857303;29;20026;-68
2024/01/17 04:40:23;;;;;;;8.80;5.68;;;-2.60;99.90;;;;;;4858105;29;20041;-69
2024/01/17 04:42:49;;;;;;;7.97;3.78;;;-2.60;99.90;;;;;;4857301;29;20169;-67
2024/01/17 04:45:18;;;;;;;10.90;5.30;;;-2.60;99.90;;;;;;4856954;29;20490;-67
2024/01/17 04:47:44;;;;;;;5.68;3.33;;;-2.60;99.90;;;;;;4858452;29;20029;-68
2024/01/17 04:50:12;;;;;;;8.10;4.57;;;-2.60;99.90;;;;;;4858200;29;20040;-68
2024/01/17 04:52:38;;;;;;;5.85;3.58;;;-2.50;99.90;;;;;;4858643;29;20025;-68
2024/01/17 04:55:05;;;;;;;14.57;4.63;;;-2.50;99.90;;;;;;4855564;29;20462;-68
2024/01/17 04:57:30;;;;;;;9.55;4.80;;;-2.60;99.90;;;;;;4859030;29;20033;-68
2024/01/17 04:59:56;;;;;;;5.50;3.83;;;-2.50;99.90;;;;;;4856907;29;20173;-68
2024/01/17 05:02:22;;;;;;;12.65;4.05;;;-2.50;99.90;;;;;;4858332;29;20107;-68
2024/01/17 05:04:48;;;;;;;10.10;4.32;;;-2.50;99.90;;;;;;4858443;29;20044;-68
2024/01/17 05:07:13;;;;;;;8.55;4.35;;;-2.50;99.90;;;;;;4858627;29;20040;-68
2024/01/17 05:09:39;;;;;;;7.03;3.22;;;-2.50;99.90;;;;;;4856612;29;20037;-68
2024/01/17 05:12:05;;;;;;;16.13;3.47;;;-2.50;99.90;;;;;;4859017;29;20026;-68
2024/01/17 05:14:31;;;;;;;10.75;4.30;;;-2.50;99.90;;;;;;4872313;29;20537;-68
2024/01/17 05:16:57;;;;;;;11.02;4.97;;;-2.40;99.90;;;;;;4829810;29;20057;-68
2024/01/17 05:19:23;;;;;;;6.90;4.05;;;-2.40;99.90;;;;;;4861246;29;20045;-68
2024/01/17 05:21:48;;;;;;;11.52;3.67;;;-2.40;99.90;;;;;;4876418;29;20034;-68
2024/01/17 05:24:14;;;;;;;8.75;4.13;;;-2.40;99.90;;;;;;4862216;29;20048;-68
2024/01/17 05:26:40;;;;;;;12.10;4.70;;;-2.40;99.90;;;;;;4858451;29;20041;-68
2024/01/17 05:29:06;;;;;;;6.45;3.97;;;-2.40;99.90;;;;;;4862577;29;20378;-68
2024/01/17 05:31:32;;;;;;;8.82;5.07;;;-2.00;99.90;;;;;;4860006;29;20033;-68
2024/01/17 05:33:57;;;;;;;5.10;4.03;;;-1.40;99.90;;;;;;4861642;29;20036;-68
2024/01/17 05:36:23;;;;;;;5.05;3.42;;;-1.10;99.90;;;;;;4857863;29;20482;-68
2024/01/17 05:38:49;;;;;;;5.53;3.20;;;-1.40;99.90;;;;;;4861818;29;20045;-68
2024/01/17 05:41:15;;;;;;;10.65;3.80;;;-1.80;99.90;;;;;;4874034;29;20504;-68
2024/01/17 05:43:40;;;;;;;4.20;3.20;;;-2.10;99.90;;;;;;4860123;29;20037;-68
2024/01/17 05:46:07;;;;;;;5.88;3.75;;;-2.10;99.90;;;;;;4858113;29;20375;-68
2024/01/17 05:48:33;;;;;;;10.57;4.45;;;-2.10;99.90;;;;;;4862447;29;20448;-68
2024/01/17 05:50:59;;;;;;;6.95;3.17;;;-2.10;99.90;;;;;;4859834;29;20045;-68
2024/01/17 05:53:25;;;;;;;5.90;3.75;;;-2.10;99.90;;;;;;4859564;29;20041;-68
2024/01/17 05:55:52;;;;;;;7.78;4.10;;;-2.10;99.90;;;;;;4866705;29;20037;-68
2024/01/17 05:58:18;;;;;;;2.88;2.33;;;-2.20;99.90;;;;;;4859855;29;20025;-69
2024/01/17 06:00:44;;;;;;;8.43;3.15;;;-2.20;99.90;;;;;;4858165;29;20061;-68
2024/01/17 06:03:09;;;;;;;7.40;4.18;;;-2.20;99.90;;;;;;4861430;29;20025;-68
2024/01/17 06:05:35;;;;;;;9.45;3.97;;;-2.30;99.90;;;;;;4860662;29;20640;-69
2024/01/17 06:08:01;;;;;;;4.82;3.42;;;-2.30;99.90;;;;;;4859822;29;20043;-66
2024/01/17 06:10:28;;;;;;;11.50;4.75;;;-2.20;99.90;;;;;;4861510;29;20124;-66
2024/01/17 06:12:54;;;;;;;11.77;4.90;;;-2.30;99.90;;;;;;4857474;29;20034;-66
2024/01/17 06:15:19;;;;;;;10.40;4.15;;;-2.30;99.90;;;;;;4849722;29;20384;-66
2024/01/17 06:17:45;;;;;;;6.28;3.25;;;-2.30;99.90;;;;;;4853696;29;20045;-67
2024/01/17 06:20:11;;;;;;;8.27;4.00;;;-2.20;99.90;;;;;;4860377;29;20034;-66
2024/01/17 06:22:38;;;;;;;11.57;4.95;;;-2.30;99.90;;;;;;4860604;29;20048;-66
2024/01/17 06:25:07;;;;;;;5.88;4.55;;;-2.30;99.90;;;;;;4861655;29;20089;-67
2024/01/17 06:27:34;;;;;;;4.55;2.88;;;-2.10;99.90;;;;;;4864435;29;20061;-67
2024/01/17 06:29:59;;;;;;;4.35;3.50;;;-2.00;99.90;;;;;;4877127;29;20021;-67
2024/01/17 06:32:25;;;;;;;9.02;4.38;;;-2.00;99.90;;;;;;4859701;29;20037;-68
2024/01/17 06:34:51;;;;;;;11.05;4.82;;;-2.10;99.90;;;;;;4862428;29;20230;-67
2024/01/17 06:37:17;;;;;;;5.88;3.40;;;-2.20;99.90;;;;;;4862219;29;20049;-67
2024/01/17 06:39:44;;;;;;;6.07;2.80;;;-2.20;99.90;;;;;;4859492;29;20034;-67
2024/01/17 06:42:10;;;;;;;4.72;2.85;;;-2.20;99.90;;;;;;4860394;29;20033;-68
2024/01/17 06:44:36;;;;;;;8.02;4.50;;;-2.20;99.90;;;;;;4860709;29;20181;-67
2024/01/17 06:47:03;;;;;;;8.63;4.78;;;-2.20;99.90;;;;;;4857610;29;20104;-67
2024/01/17 06:49:29;;;;;;;13.35;4.32;;;-2.00;99.90;;;;;;4851807;29;20041;-67
2024/01/17 06:51:58;;;;;;;9.25;2.85;;;-2.00;99.90;;;;;;4858191;29;20032;-67
2024/01/17 06:54:24;;;;;;;5.55;3.88;;;-2.00;99.90;;;;;;4855878;29;20038;-67
2024/01/17 06:56:52;;;;;;;7.40;5.00;;;-2.00;99.90;;;;;;4858284;29;20380;-66
2024/01/17 06:59:17;;;;;;;9.38;4.90;;;-1.80;99.90;;;;;;4855270;29;20045;-66
2024/01/17 07:01:43;;;;;;;8.15;4.75;;;-1.70;99.90;;;;;;4859595;29;20418;-66
2024/01/17 07:04:09;;;;;;;5.15;3.00;;;-1.80;99.90;;;;;;4858556;29;20037;-67
2024/01/17 07:06:38;;;;;;;6.38;3.33;;;-1.70;99.90;;;;;;4874822;29;20137;-71
2024/01/17 07:09:03;;;;;;;3.25;2.65;;;-1.80;99.90;;;;;;4852995;29;20111;-68
2024/01/17 07:11:29;;;;;;;14.38;4.47;;;-1.70;99.90;;;;;;4859322;29;20114;-68
2024/01/17 07:13:55;;;;;;;9.10;3.95;;;-1.60;99.90;;;;;;4873513;29;20030;-68
2024/01/17 07:16:22;;;;;;;5.57;4.18;;;-1.70;99.90;;;;;;4860708;29;20436;-67
2024/01/17 07:18:48;;;;;;;17.92;4.47;;;-1.70;99.90;;;;;;4859437;29;20358;-66
2024/01/17 07:21:14;;;;;;;5.72;4.63;;;-1.60;99.90;;;;;;4859912;29;20669;-66
2024/01/17 07:23:40;;;;;;;6.53;4.47;;;-1.60;99.90;;;;;;4857466;29;20044;-66
2024/01/17 07:26:06;;;;;;;13.95;5.30;;;-1.60;99.90;;;;;;4857864;29;20065;-66
2024/01/17 07:28:32;;;;;;;10.75;4.55;;;-1.60;99.90;;;;;;4856706;29;20136;-65
2024/01/17 07:30:58;;;;;;;6.28;4.40;;;-1.70;99.90;;;;;;4856152;29;20144;-65
2024/01/17 07:33:23;;;;;;;8.77;3.78;;;-1.60;99.90;;;;;;4859096;29;20044;-66
2024/01/17 07:35:49;;;;;;;6.75;4.60;;;-1.50;99.90;;;;;;4859469;29;20499;-64
2024/01/17 07:38:15;;;;;;;6.97;4.30;;;-1.50;99.90;;;;;;4855141;29;20121;-65
2024/01/17 07:40:41;;;;;;;10.35;4.75;;;-1.60;99.90;;;;;;4856605;29;20026;-64
2024/01/17 07:43:07;;;;;;;9.88;4.93;;;-1.60;99.90;;;;;;4857045;29;20136;-64
2024/01/17 07:45:33;;;;;;;5.97;4.32;;;-1.50;99.90;;;;;;4855901;29;20060;-64
2024/01/17 07:47:59;;;;;;;6.93;4.82;;;-1.40;99.90;;;;;;4858430;29;20041;-65
2024/01/17 07:50:25;;;;;;;8.15;4.82;;;-1.40;99.90;;;;;;4855334;29;20025;-64
2024/01/17 07:52:50;;;;;;;6.47;2.83;;;-1.30;99.90;;;;;;4857597;29;20022;-65
2024/01/17 07:55:16;;;;;;;9.75;4.78;;;-1.30;99.90;;;;;;4873142;29;20033;-64
2024/01/17 07:57:42;;;;;;;6.05;4.80;;;-1.20;99.90;;;;;;4858151;29;20034;-65
2024/01/17 08:00:08;;;;;;;8.30;3.80;;;-1.20;99.90;;;;;;4858457;29;20092;-65
2024/01/17 08:02:34;;;;;;;6.53;4.10;;;-1.20;99.90;;;;;;4859017;29;20143;-65
2024/01/17 08:05:00;;;;;;;8.20;4.50;;;-1.10;99.90;;;;;;4851417;29;20041;-66
2024/01/17 08:07:27;;;;;;;5.80;4.38;;;-1.10;99.90;;;;;;4858623;29;20029;-66
2024/01/17 08:09:53;;;;;;;5.85;4.78;;;-1.20;99.90;;;;;;4856533;29;20044;-66
2024/01/17 08:12:19;;;;;;;16.98;7.22;;;-1.10;99.90;;;;;;4857363;29;20108;-67
2024/01/17 08:14:46;;;;;;;8.88;4.38;;;-1.00;99.90;;;;;;4851686;29;20041;-66
2024/01/17 08:17:16;;;;;;;8.45;4.32;;;-1.00;99.90;;;;;;4857795;29;20125;-65
2024/01/17 08:19:41;;;;;;;15.20;4.70;;;-1.00;99.90;;;;;;4855370;29;20056;-67
2024/01/17 08:22:07;;;;;;;8.52;4.55;;;-1.00;99.90;;;;;;4857167;29;20483;-67
2024/01/17 08:24:34;;;;;;;7.05;3.63;;;-0.90;99.90;;;;;;4853399;29;20499;-66
2024/01/17 08:26:59;;;;;;;9.75;5.65;;;-0.90;99.90;;;;;;4857041;29;20077;-66
2024/01/17 08:29:26;;;;;;;8.55;5.63;;;-0.90;99.90;;;;;;4857844;29;20038;-66
2024/01/17 08:31:52;;;;;;;8.93;6.18;;;-0.90;99.90;;;;;;4858464;29;20510;-66
2024/01/17 08:34:20;;;;;;;9.65;5.32;;;-1.00;99.90;;;;;;4856019;29;20060;-66
2024/01/17 08:36:47;;;;;;;5.20;4.38;;;-1.10;99.90;;;;;;4872324;29;20517;-66
2024/01/17 08:39:13;;;;;;;5.43;4.70;;;-1.00;99.90;;;;;;4857141;29;20432;-66
2024/01/17 08:41:41;;;;;;;15.48;6.28;;;-1.00;99.90;;;;;;4858227;29;20052;-66
2024/01/17 08:44:07;;;;;;;11.07;4.68;;;-0.90;99.90;;;;;;4857233;29;20048;-66
2024/01/17 08:46:40;;;;;;;9.98;5.95;;;-1.00;99.90;;;;;;4872013;29;20113;-67
2024/01/17 08:49:06;;;;;;;7.88;6.13;;;-1.00;99.90;;;;;;4857316;29;20036;-67
2024/01/17 08:51:32;;;;;;;7.25;4.35;;;-1.00;99.90;;;;;;4857420;29;20037;-67
2024/01/17 08:53:58;;;;;;;8.95;5.45;;;-0.90;99.90;;;;;;4857078;29;20052;-67
2024/01/17 08:56:24;;;;;;;9.60;4.47;;;-0.90;99.90;;;;;;4857230;29;20037;-67
2024/01/17 08:58:50;;;;;;;9.77;5.50;;;-0.90;99.90;;;;;;4857571;29;20033;-70
2024/01/17 09:01:15;;;;;;;12.55;5.15;;;-0.80;99.90;;;;;;4858186;29;20399;-67
2024/01/17 09:03:43;;;;;;;13.73;5.93;;;-0.90;99.90;;;;;;4856772;29;20041;-67
2024/01/17 09:06:09;;;;;;;7.13;4.20;;;-0.80;99.90;;;;;;4858319;29;20049;-67
2024/01/17 09:08:35;;;;;;;9.23;4.22;;;-0.80;99.90;;;;;;4858124;29;20030;-66
2024/01/17 09:11:00;;;;;;;10.13;5.32;;;-0.60;99.90;;;;;;4872323;29;20356;-67
2024/01/17 09:13:26;;;;;;;9.35;5.25;;;-0.80;99.90;;;;;;4854024;29;20045;-67
2024/01/17 09:15:52;;;;;;;14.23;6.60;;;-0.60;99.90;;;;;;4857818;29;20029;-66
2024/01/17 09:18:18;;;;;;;16.30;5.97;;;-0.50;99.90;;;;;;4858141;29;20502;-67
2024/01/17 09:20:45;;;;;;;11.68;5.55;;;-0.50;99.90;;;;;;4858447;29;20085;-66
2024/01/17 09:23:11;;;;;;;11.38;5.75;;;-0.60;99.90;;;;;;4856100;29;20090;-66
2024/01/17 09:25:36;;;;;;;13.27;6.13;;;-0.50;99.90;;;;;;4858142;29;20052;-66
2024/01/17 09:28:02;;;;;;;9.18;6.18;;;-0.40;99.90;;;;;;4856829;29;20436;-65
2024/01/17 09:30:28;;;;;;;6.00;4.15;;;-0.40;99.90;;;;;;4858250;29;20528;-66
2024/01/17 09:32:54;;;;;;;12.98;4.68;;;-0.50;99.90;;;;;;4857423;29;20112;-66
2024/01/17 09:35:19;;;;;;;7.43;5.32;;;-0.60;99.90;;;;;;4857984;29;20082;-66
2024/01/17 09:37:45;;;;;;;5.82;4.35;;;-0.50;99.90;;;;;;4857555;29;20382;-66
2024/01/17 09:40:12;;;;;;;11.27;4.40;;;-0.40;99.90;;;;;;4855748;29;20065;-66
2024/01/17 09:42:38;;;;;;;8.88;4.57;;;-0.30;99.90;;;;;;4856678;29;20538;-66
2024/01/17 09:45:07;;;;;;;14.25;6.25;;;-0.30;99.90;;;;;;4857579;29;20101;-66
2024/01/17 09:47:34;;;;;;;13.02;6.03;;;-0.30;99.90;;;;;;4856914;29;20033;-66
2024/01/17 09:50:00;;;;;;;8.25;5.15;;;-0.20;99.90;;;;;;4853027;29;20029;-66
2024/01/17 09:52:26;;;;;;;6.05;4.43;;;-0.10;99.90;;;;;;4855961;29;20033;-66
2024/01/17 09:54:55;;;;;;;4.63;3.53;;;-0.10;99.90;;;;;;4855988;29;20037;-67
2024/01/17 09:57:25;;;;;;;20.10;3.63;;;0.00;99.90;;;;;;4856770;29;20400;-66
2024/01/17 10:00:07;;;;;;;7.47;4.70;;;0.20;99.90;;;;;;4853489;29;20089;-67
2024/01/17 10:02:36;;;;;;;10.48;5.32;;;0.10;99.90;;;;;;4857808;29;20530;-67
2024/01/17 10:05:05;;;;;;;9.20;4.18;;;0.20;99.90;;;;;;4856583;29;20415;-66
2024/01/17 10:07:31;;;;;;;19.73;6.25;;;0.00;99.90;;;;;;4860407;29;20094;-66
2024/01/17 10:09:57;;;;;;;11.45;5.55;;;0.20;99.90;;;;;;4860255;29;20038;-67
2024/01/17 10:12:23;;;;;;;7.78;4.93;;;0.00;99.90;;;;;;4874255;29;20042;-67
2024/01/17 10:14:49;;;;;;;8.77;5.20;;;0.10;99.90;;;;;;4860760;29;20132;-67
2024/01/17 10:17:15;;;;;;;6.05;4.43;;;-0.20;99.90;;;;;;4853997;29;20486;-67
2024/01/17 10:19:41;;;;;;;15.38;6.20;;;-0.10;99.90;;;;;;4859166;29;20170;-67
2024/01/17 10:22:10;;;;;;;13.02;4.53;;;-0.10;99.90;;;;;;4860835;29;20089;-67
2024/01/17 10:24:38;;;;;;;7.75;4.53;;;0.00;99.90;;;;;;4860069;29;20041;-67
2024/01/17 10:27:06;;;;;;;8.13;5.25;;;0.00;99.90;;;;;;4859206;29;20424;-66
2024/01/17 10:29:36;;;;;;;13.40;5.43;;;0.10;99.90;;;;;;4858248;29;20053;-67
2024/01/17 10:32:02;;;;;;;11.73;6.30;;;0.10;99.90;;;;;;4859454;29;20026;-66
2024/01/17 10:34:29;;;;;;;11.10;5.35;;;-0.10;99.90;;;;;;4855473;29;20121;-66
2024/01/17 10:36:55;;;;;;;14.02;6.80;;;0.10;99.90;;;;;;4856277;29;20093;-67
2024/01/17 10:39:22;;;;;;;6.57;4.22;;;0.20;99.90;;;;;;4858199;29;20034;-67
2024/01/17 10:41:54;;;;;;;12.63;5.45;;;0.10;99.90;;;;;;4858454;29;20089;-66
2024/01/17 10:44:25;;;;;;;6.93;4.78;;;0.20;99.90;;;;;;4851550;29;20044;-66
2024/01/17 10:46:52;;;;;;;13.48;6.80;;;0.50;99.90;;;;;;4874709;29;20052;-66
2024/01/17 10:49:24;;;;;;;9.45;4.88;;;0.50;99.90;;;;;;4858097;29;20455;-67
2024/01/17 10:52:08;;;;;;;9.32;4.32;;;0.50;99.90;;;;;;4860407;29;20029;-66
2024/01/17 10:55:04;;;;;;;7.90;4.97;;;0.40;99.90;;;;;;4858117;29;20515;-66
2024/01/17 10:57:35;;;;;;;8.82;5.95;;;0.40;99.90;;;;;;4856233;29;20037;-66
2024/01/17 11:00:06;;;;;;;14.05;7.18;;;0.40;99.90;;;;;;4857930;29;20059;-66
2024/01/17 11:02:35;;;;;;;7.18;4.53;;;0.40;99.90;;;;;;4859696;29;20041;-65
2024/01/17 11:05:11;;;;;;;11.52;6.45;;;0.20;99.90;;;;;;4856221;29;20061;-65
2024/01/17 11:07:38;;;;;;;11.52;7.00;;;0.20;99.90;;;;;;4871286;29;20475;-65
2024/01/17 11:10:05;;;;;;;9.48;5.70;;;0.20;99.90;;;;;;4856653;29;20501;-65
2024/01/17 11:12:33;;;;;;;10.00;6.50;;;0.20;99.90;;;;;;4859668;29;20033;-65
2024/01/17 11:15:01;;;;;;;22.25;5.65;;;0.30;99.90;;;;;;4859011;29;20088;-65
2024/01/17 11:17:28;;;;;;;9.70;5.88;;;0.20;99.90;;;;;;4858489;29;20037;-65
2024/01/17 11:19:57;;;;;;;8.63;6.13;;;0.30;99.90;;;;;;4856270;29;20042;-66
2024/01/17 11:22:23;;;;;;;32.97;6.25;;;0.30;99.90;;;;;;4858399;29;20034;-65
2024/01/17 11:25:28;;;;;;;10.00;5.30;;;0.30;99.90;;;;;;4859241;29;20379;-61
2024/01/17 11:28:04;;;;;;;8.68;4.93;;;0.30;99.90;;;;;;4852931;29;20107;-63
2024/01/17 11:31:05;;;;;;;11.65;5.43;;;0.30;99.90;;;;;;4859331;29;20052;-64
2024/01/17 11:33:32;;;;;;;8.13;5.55;;;0.10;99.90;;;;;;4854975;29;20053;-63
2024/01/17 11:35:59;;;;;;;6.28;4.90;;;0.00;99.90;;;;;;4873849;29;20069;-63
2024/01/17 11:38:24;;;;;;;8.00;5.53;;;-0.10;99.90;;;;;;4858088;29;20052;-63
2024/01/17 11:40:53;;;;;;;12.25;6.50;;;0.00;99.90;;;;;;4859320;29;20053;-63
2024/01/17 11:43:19;;;;;;;10.93;5.85;;;0.00;99.90;;;;;;4857458;29;20044;-64
2024/01/17 11:45:50;;;;;;;13.07;5.57;;;-0.20;99.90;;;;;;4858068;29;20073;-64
2024/01/17 11:48:19;;;;;;;10.40;5.38;;;-0.20;99.90;;;;;;4858615;29;20104;-63
2024/01/17 11:51:14;;;;;;;11.35;5.78;;;-0.20;99.90;;;;;;4855400;29;20121;-64
2024/01/17 11:53:53;;;;;;;6.38;5.10;;;-0.20;99.90;;;;;;4842849;29;20068;-64
2024/01/17 11:56:20;;;;;;;9.15;5.43;;;0.00;99.90;;;;;;4856661;29;20120;-63
2024/01/17 11:59:04;;;;;;;7.65;5.55;;;-0.10;99.90;;;;;;4853577;29;20029;-63
2024/01/17 12:01:35;;;;;;;6.28;5.03;;;0.00;99.90;;;;;;4856996;29;20040;-64
2024/01/17 12:04:13;;;;;;;17.73;6.45;;;0.10;99.90;;;;;;4872212;29;20038;-64
2024/01/17 12:06:41;;;;;;;12.93;6.25;;;0.20;99.90;;;;;;4857934;29;20065;-64
2024/01/17 12:09:17;;;;;;;11.32;5.45;;;0.30;99.90;;;;;;4872669;29;20117;-64
2024/01/17 12:11:47;;;;;;;8.43;5.30;;;0.40;99.90;;;;;;4859037;29;20056;-63
2024/01/17 12:14:16;;;;;;;10.70;6.85;;;0.30;99.90;;;;;;4855814;29;20439;-63
2024/01/17 12:16:45;;;;;;;11.38;6.60;;;0.30;99.90;;;;;;4859956;29;20038;-64
2024/01/17 12:19:11;;;;;;;12.48;7.43;;;0.30;99.90;;;;;;4854877;29;20089;-64
2024/01/17 12:21:37;;;;;;;11.07;7.10;;;0.30;99.90;;;;;;4857585;29;20037;-64
2024/01/17 12:24:04;;;;;;;9.80;5.43;;;0.20;99.90;;;;;;4855224;29;20044;-64
2024/01/17 12:26:34;;;;;;;10.57;6.78;;;0.30;99.90;;;;;;4858045;29;20061;-64
2024/01/17 12:29:10;;;;;;;7.60;4.22;;;0.40;99.90;;;;;;4861326;29;20046;-64
2024/01/17 12:31:37;;;;;;;7.88;5.28;;;0.30;99.90;;;;;;4862120;29;20499;-63
2024/01/17 12:34:09;;;;;;;7.82;5.13;;;0.20;99.90;;;;;;4854512;29;20467;-64
2024/01/17 12:36:37;;;;;;;11.45;6.43;;;0.20;99.90;;;;;;4862188;29;20078;-63
2024/01/17 12:39:08;;;;;;;8.02;5.95;;;0.20;99.90;;;;;;4859866;29;20040;-63
2024/01/17 12:41:36;;;;;;;9.23;7.28;;;0.20;99.90;;;;;;4857676;29;20051;-63
2024/01/17 12:44:04;;;;;;;8.73;5.13;;;0.30;99.90;;;;;;4855211;29;20071;-63
2024/01/17 12:46:31;;;;;;;7.32;4.88;;;0.20;99.90;;;;;;4855182;29;20040;-63